sensor_id;sensor_type;location;lat;lon;timestamp;temperature;humidity
30134;DHT22;16946;49.984;10.672;2023-03-19T00:00:04;7.50;99.90
30134;DHT22;16946;49.984;10.672;2023-03-19T00:00:39;7.40;99.90
30134;DHT22;16946;49.984;10.672;2023-03-19T00:01:10;7.40;99.90
30134;DHT22;16946;49.984;10.672;2023-03-19T00:01:40;7.30;99.90
30134;DHT22;16946;49.984;10.672;2023-03-19T00:02:11;7.30;99.90
30134;DHT22;16946;49.984;10.672;2023-03-19T00:02:42;7.30;99.90
30134;DHT22;16946;49.984;10.672;2023-03-19T00:03:18;7.30;99.90
30134;DHT22;16946;49.984;10.672;2023-03-19T00:03:49;7.20;99.90
30134;DHT22;16946;49.984;10.672;2023-03-19T00:04:20;7.10;99.90
30134;DHT22;16946;49.984;10.672;2023-03-19T00:04:51;7.10;99.90
30134;DHT22;16946;49.984;10.672;2023-03-19T00:05:22;7.10;99.90
30134;DHT22;16946;49.984;10.672;2023-03-19T00:05:52;7.10;99.90
30134;DHT22;16946;49.984;10.672;2023-03-19T00:06:23;7.10;99.90
30134;DHT22;16946;49.984;10.672;2023-03-19T00:06:54;7.10;99.90
30134;DHT22;16946;49.984;10.672;2023-03-19T00:07:25;7.00;99.90
30134;DHT22;16946;49.984;10.672;2023-03-19T00:07:56;7.00;99.90
30134;DHT22;16946;49.984;10.672;2023-03-19T00:08:26;7.00;99.90
30134;DHT22;16946;49.984;10.672;2023-03-19T00:08:57;7.00;99.90
30134;DHT22;16946;49.984;10.672;2023-03-19T00:09:28;6.90;99.90
30134;DHT22;16946;49.984;10.672;2023-03-19T00:09:58;6.90;99.90
30134;DHT22;16946;49.984;10.672;2023-03-19T00:10:29;6.90;99.90
30134;DHT22;16946;49.984;10.672;2023-03-19T00:11:07;6.90;99.90
30134;DHT22;16946;49.984;10.672;2023-03-19T00:11:38;6.80;99.90
30134;DHT22;16946;49.984;10.672;2023-03-19T00:12:10;6.80;99.90
30134;DHT22;16946;49.984;10.672;2023-03-19T00:12:41;6.80;99.90
30134;DHT22;16946;49.984;10.672;2023-03-19T00:13:11;6.80;99.90
30134;DHT22;16946;49.984;10.672;2023-03-19T00:13:42;6.70;99.90
30134;DHT22;16946;49.984;10.672;2023-03-19T00:14:13;6.70;99.90
30134;DHT22;16946;49.984;10.672;2023-03-19T00:14:44;6.70;99.90
30134;DHT22;16946;49.984;10.672;2023-03-19T00:15:15;6.80;99.90
30134;DHT22;16946;49.984;10.672;2023-03-19T00:15:45;6.80;99.90
30134;DHT22;16946;49.984;10.672;2023-03-19T00:16:19;6.80;99.90
30134;DHT22;16946;49.984;10.672;2023-03-19T00:16:50;6.80;99.90
30134;DHT22;16946;49.984;10.672;2023-03-19T00:17:20;6.80;99.90
30134;DHT22;16946;49.984;10.672;2023-03-19T00:17:51;6.90;99.90
30134;DHT22;16946;49.984;10.672;2023-03-19T00:18:23;6.90;99.90
30134;DHT22;16946;49.984;10.672;2023-03-19T00:18:54;6.90;99.90
30134;DHT22;16946;49.984;10.672;2023-03-19T00:19:25;6.90;99.90
30134;DHT22;16946;49.984;10.672;2023-03-19T00:19:55;6.90;99.90
30134;DHT22;16946;49.984;10.672;2023-03-19T00:20:26;6.80;99.90
30134;DHT22;16946;49.984;10.672;2023-03-19T00:20:56;6.70;99.90
30134;DHT22;16946;49.984;10.672;2023-03-19T00:21:27;6.70;99.90
30134;DHT22;16946;49.984;10.672;2023-03-19T00:21:57;6.70;99.90
30134;DHT22;16946;49.984;10.672;2023-03-19T00:22:28;6.70;99.90
30134;DHT22;16946;49.984;10.672;2023-03-19T00:22:59;6.70;99.90
30134;DHT22;16946;49.984;10.672;2023-03-19T00:23:29;6.70;99.90
30134;DHT22;16946;49.984;10.672;2023-03-19T00:24:00;6.70;99.90
30134;DHT22;16946;49.984;10.672;2023-03-19T00:24:32;6.80;99.90
30134;DHT22;16946;49.984;10.672;2023-03-19T00:25:04;6.80;99.90
30134;DHT22;16946;49.984;10.672;2023-03-19T00:25:34;6.80;99.90
30134;DHT22;16946;49.984;10.672;2023-03-19T00:26:05;6.80;99.90
30134;DHT22;16946;49.984;10.672;2023-03-19T00:26:36;6.90;99.90
30134;DHT22;16946;49.984;10.672;2023-03-19T00:27:07;6.90;99.90
30134;DHT22;16946;49.984;10.672;2023-03-19T00:27:38;6.90;99.90
30134;DHT22;16946;49.984;10.672;2023-03-19T00:28:08;6.90;99.90
30134;DHT22;16946;49.984;10.672;2023-03-19T00:28:39;6.90;99.90
30134;DHT22;16946;49.984;10.672;2023-03-19T00:29:11;6.90;99.90
30134;DHT22;16946;49.984;10.672;2023-03-19T00:29:42;6.90;99.90
30134;DHT22;16946;49.984;10.672;2023-03-19T00:30:12;7.00;99.90
30134;DHT22;16946;49.984;10.672;2023-03-19T00:30:44;7.00;99.90
30134;DHT22;16946;49.984;10.672;2023-03-19T00:31:15;7.00;99.90
30134;DHT22;16946;49.984;10.672;2023-03-19T00:31:46;6.90;99.90
30134;DHT22;16946;49.984;10.672;2023-03-19T00:32:17;6.90;99.90
30134;DHT22;16946;49.984;10.672;2023-03-19T00:32:47;6.90;99.90
30134;DHT22;16946;49.984;10.672;2023-03-19T00:33:18;6.80;99.90
30134;DHT22;16946;49.984;10.672;2023-03-19T00:33:49;6.90;99.90
30134;DHT22;16946;49.984;10.672;2023-03-19T00:34:20;6.80;99.90
30134;DHT22;16946;49.984;10.672;2023-03-19T00:34:50;6.80;99.90
30134;DHT22;16946;49.984;10.672;2023-03-19T00:35:21;6.80;99.90
30134;DHT22;16946;49.984;10.672;2023-03-19T00:35:51;6.70;99.90
30134;DHT22;16946;49.984;10.672;2023-03-19T00:36:23;6.70;99.90
30134;DHT22;16946;49.984;10.672;2023-03-19T00:36:54;6.70;99.90
30134;DHT22;16946;49.984;10.672;2023-03-19T00:37:26;6.70;99.90
30134;DHT22;16946;49.984;10.672;2023-03-19T00:37:57;6.70;99.90
30134;DHT22;16946;49.984;10.672;2023-03-19T00:38:28;6.70;99.90
30134;DHT22;16946;49.984;10.672;2023-03-19T00:38:58;6.80;99.90
30134;DHT22;16946;49.984;10.672;2023-03-19T00:39:29;6.80;99.90
30134;DHT22;16946;49.984;10.672;2023-03-19T00:39:59;6.70;99.90
30134;DHT22;16946;49.984;10.672;2023-03-19T00:40:30;6.70;99.90
30134;DHT22;16946;49.984;10.672;2023-03-19T00:41:02;6.60;99.90
30134;DHT22;16946;49.984;10.672;2023-03-19T00:41:32;6.60;99.90
30134;DHT22;16946;49.984;10.672;2023-03-19T00:42:03;6.60;99.90
30134;DHT22;16946;49.984;10.672;2023-03-19T00:42:34;6.60;99.90
30134;DHT22;16946;49.984;10.672;2023-03-19T00:43:04;6.60;99.90
30134;DHT22;16946;49.984;10.672;2023-03-19T00:43:35;6.50;99.90
30134;DHT22;16946;49.984;10.672;2023-03-19T00:44:06;6.40;99.90
30134;DHT22;16946;49.984;10.672;2023-03-19T00:44:37;6.40;99.90
30134;DHT22;16946;49.984;10.672;2023-03-19T00:45:08;6.30;99.90
30134;DHT22;16946;49.984;10.672;2023-03-19T00:45:39;6.30;99.90
30134;DHT22;16946;49.984;10.672;2023-03-19T00:46:11;6.30;99.90
30134;DHT22;16946;49.984;10.672;2023-03-19T00:46:42;6.30;99.90
30134;DHT22;16946;49.984;10.672;2023-03-19T00:47:12;6.30;99.90
30134;DHT22;16946;49.984;10.672;2023-03-19T00:47:43;6.30;99.90
30134;DHT22;16946;49.984;10.672;2023-03-19T00:48:13;6.30;99.90
30134;DHT22;16946;49.984;10.672;2023-03-19T00:48:44;6.40;99.90
30134;DHT22;16946;49.984;10.672;2023-03-19T00:49:14;6.40;99.90
30134;DHT22;16946;49.984;10.672;2023-03-19T00:49:45;6.50;99.90
30134;DHT22;16946;49.984;10.672;2023-03-19T00:50:16;6.40;99.90
30134;DHT22;16946;49.984;10.672;2023-03-19T00:50:47;6.40;99.90
30134;DHT22;16946;49.984;10.672;2023-03-19T00:51:18;6.30;99.90
30134;DHT22;16946;49.984;10.672;2023-03-19T00:51:48;6.30;99.90
30134;DHT22;16946;49.984;10.672;2023-03-19T00:52:19;6.20;99.90
30134;DHT22;16946;49.984;10.672;2023-03-19T00:52:50;6.20;99.90
30134;DHT22;16946;49.984;10.672;2023-03-19T00:53:21;6.20;99.90
30134;DHT22;16946;49.984;10.672;2023-03-19T00:53:52;6.10;99.90
30134;DHT22;16946;49.984;10.672;2023-03-19T00:54:23;6.00;99.90
30134;DHT22;16946;49.984;10.672;2023-03-19T00:54:53;6.00;99.90
30134;DHT22;16946;49.984;10.672;2023-03-19T00:55:24;5.90;99.90
30134;DHT22;16946;49.984;10.672;2023-03-19T00:55:56;5.90;99.90
30134;DHT22;16946;49.984;10.672;2023-03-19T00:56:27;5.90;99.90
30134;DHT22;16946;49.984;10.672;2023-03-19T00:56:57;5.90;99.90
30134;DHT22;16946;49.984;10.672;2023-03-19T00:57:28;5.90;99.90
30134;DHT22;16946;49.984;10.672;2023-03-19T00:57:59;5.90;99.90
30134;DHT22;16946;49.984;10.672;2023-03-19T00:58:30;5.80;99.90
30134;DHT22;16946;49.984;10.672;2023-03-19T00:59:00;5.80;99.90
30134;DHT22;16946;49.984;10.672;2023-03-19T00:59:31;5.80;99.90
30134;DHT22;16946;49.984;10.672;2023-03-19T01:00:02;5.80;99.90
30134;DHT22;16946;49.984;10.672;2023-03-19T01:00:33;5.80;99.90
30134;DHT22;16946;49.984;10.672;2023-03-19T01:01:05;5.80;99.90
30134;DHT22;16946;49.984;10.672;2023-03-19T01:01:35;5.80;99.90
30134;DHT22;16946;49.984;10.672;2023-03-19T01:02:07;5.80;99.90
30134;DHT22;16946;49.984;10.672;2023-03-19T01:02:37;5.80;99.90
30134;DHT22;16946;49.984;10.672;2023-03-19T01:03:08;5.80;99.90
30134;DHT22;16946;49.984;10.672;2023-03-19T01:03:38;5.90;99.90
30134;DHT22;16946;49.984;10.672;2023-03-19T01:04:09;5.90;99.90
30134;DHT22;16946;49.984;10.672;2023-03-19T01:04:40;5.90;99.90
30134;DHT22;16946;49.984;10.672;2023-03-19T01:05:11;6.00;99.90
30134;DHT22;16946;49.984;10.672;2023-03-19T01:05:41;6.00;99.90
30134;DHT22;16946;49.984;10.672;2023-03-19T01:06:12;6.00;99.90
30134;DHT22;16946;49.984;10.672;2023-03-19T01:06:43;6.10;99.90
30134;DHT22;16946;49.984;10.672;2023-03-19T01:07:13;6.10;99.90
30134;DHT22;16946;49.984;10.672;2023-03-19T01:07:45;6.20;99.90
30134;DHT22;16946;49.984;10.672;2023-03-19T01:08:16;6.20;99.90
30134;DHT22;16946;49.984;10.672;2023-03-19T01:08:47;6.30;99.90
30134;DHT22;16946;49.984;10.672;2023-03-19T01:09:17;6.30;99.90
30134;DHT22;16946;49.984;10.672;2023-03-19T01:09:48;6.30;99.90
30134;DHT22;16946;49.984;10.672;2023-03-19T01:10:19;6.40;99.90
30134;DHT22;16946;49.984;10.672;2023-03-19T01:10:51;6.40;99.90
30134;DHT22;16946;49.984;10.672;2023-03-19T01:11:21;6.50;99.90
30134;DHT22;16946;49.984;10.672;2023-03-19T01:11:52;6.50;99.90
30134;DHT22;16946;49.984;10.672;2023-03-19T01:12:22;6.50;99.90
30134;DHT22;16946;49.984;10.672;2023-03-19T01:12:53;6.50;99.90
30134;DHT22;16946;49.984;10.672;2023-03-19T01:13:24;6.50;99.90
30134;DHT22;16946;49.984;10.672;2023-03-19T01:13:54;6.50;99.90
30134;DHT22;16946;49.984;10.672;2023-03-19T01:14:25;6.50;99.90
30134;DHT22;16946;49.984;10.672;2023-03-19T01:14:55;6.50;99.90
30134;DHT22;16946;49.984;10.672;2023-03-19T01:15:26;6.50;99.90
30134;DHT22;16946;49.984;10.672;2023-03-19T01:15:56;6.50;99.90
30134;DHT22;16946;49.984;10.672;2023-03-19T01:16:27;6.40;99.90
30134;DHT22;16946;49.984;10.672;2023-03-19T01:16:58;6.40;99.90
30134;DHT22;16946;49.984;10.672;2023-03-19T01:17:28;6.40;99.90
30134;DHT22;16946;49.984;10.672;2023-03-19T01:17:59;6.40;99.90
30134;DHT22;16946;49.984;10.672;2023-03-19T01:18:30;6.30;99.90
30134;DHT22;16946;49.984;10.672;2023-03-19T01:19:01;6.20;99.90
30134;DHT22;16946;49.984;10.672;2023-03-19T01:19:32;6.20;99.90
30134;DHT22;16946;49.984;10.672;2023-03-19T01:20:07;6.10;99.90
30134;DHT22;16946;49.984;10.672;2023-03-19T01:20:42;6.00;99.90
30134;DHT22;16946;49.984;10.672;2023-03-19T01:21:12;5.90;99.90
30134;DHT22;16946;49.984;10.672;2023-03-19T01:21:43;5.90;99.90
30134;DHT22;16946;49.984;10.672;2023-03-19T01:22:15;5.80;99.90
30134;DHT22;16946;49.984;10.672;2023-03-19T01:22:46;5.80;99.90
30134;DHT22;16946;49.984;10.672;2023-03-19T01:23:17;5.70;99.90
30134;DHT22;16946;49.984;10.672;2023-03-19T01:23:47;5.70;99.90
30134;DHT22;16946;49.984;10.672;2023-03-19T01:24:18;5.70;99.90
30134;DHT22;16946;49.984;10.672;2023-03-19T01:24:49;5.70;99.90
30134;DHT22;16946;49.984;10.672;2023-03-19T01:25:19;5.70;99.90
30134;DHT22;16946;49.984;10.672;2023-03-19T01:25:50;5.60;99.90
30134;DHT22;16946;49.984;10.672;2023-03-19T01:26:21;5.50;99.90
30134;DHT22;16946;49.984;10.672;2023-03-19T01:26:52;5.50;99.90
30134;DHT22;16946;49.984;10.672;2023-03-19T01:27:23;5.50;99.90
30134;DHT22;16946;49.984;10.672;2023-03-19T01:27:53;5.50;99.90
30134;DHT22;16946;49.984;10.672;2023-03-19T01:28:24;5.40;99.90
30134;DHT22;16946;49.984;10.672;2023-03-19T01:28:54;5.50;99.90
30134;DHT22;16946;49.984;10.672;2023-03-19T01:29:26;5.50;99.90
30134;DHT22;16946;49.984;10.672;2023-03-19T01:29:57;5.50;99.90
30134;DHT22;16946;49.984;10.672;2023-03-19T01:30:28;5.60;99.90
30134;DHT22;16946;49.984;10.672;2023-03-19T01:31:05;5.50;99.90
30134;DHT22;16946;49.984;10.672;2023-03-19T01:31:36;5.50;99.90
30134;DHT22;16946;49.984;10.672;2023-03-19T01:32:06;5.50;99.90
30134;DHT22;16946;49.984;10.672;2023-03-19T01:32:37;5.40;99.90
30134;DHT22;16946;49.984;10.672;2023-03-19T01:33:07;5.40;99.90
30134;DHT22;16946;49.984;10.672;2023-03-19T01:33:38;5.30;99.90
30134;DHT22;16946;49.984;10.672;2023-03-19T01:34:08;5.30;99.90
30134;DHT22;16946;49.984;10.672;2023-03-19T01:34:39;5.30;99.90
30134;DHT22;16946;49.984;10.672;2023-03-19T01:35:10;5.30;99.90
30134;DHT22;16946;49.984;10.672;2023-03-19T01:35:40;5.30;99.90
30134;DHT22;16946;49.984;10.672;2023-03-19T01:36:12;5.30;99.90
30134;DHT22;16946;49.984;10.672;2023-03-19T01:36:43;5.30;99.90
30134;DHT22;16946;49.984;10.672;2023-03-19T01:37:14;5.30;99.90
30134;DHT22;16946;49.984;10.672;2023-03-19T01:37:44;5.20;99.90
30134;DHT22;16946;49.984;10.672;2023-03-19T01:38:16;5.20;99.90
30134;DHT22;16946;49.984;10.672;2023-03-19T01:38:47;5.20;99.90
30134;DHT22;16946;49.984;10.672;2023-03-19T01:39:18;5.20;99.90
30134;DHT22;16946;49.984;10.672;2023-03-19T01:39:48;5.10;99.90
30134;DHT22;16946;49.984;10.672;2023-03-19T01:40:19;5.10;99.90
30134;DHT22;16946;49.984;10.672;2023-03-19T01:40:50;5.10;99.90
30134;DHT22;16946;49.984;10.672;2023-03-19T01:41:22;5.10;99.90
30134;DHT22;16946;49.984;10.672;2023-03-19T01:41:53;5.10;99.90
30134;DHT22;16946;49.984;10.672;2023-03-19T01:42:23;5.10;99.90
30134;DHT22;16946;49.984;10.672;2023-03-19T01:42:57;5.00;99.90
30134;DHT22;16946;49.984;10.672;2023-03-19T01:43:40;5.10;99.90
30134;DHT22;16946;49.984;10.672;2023-03-19T01:44:31;5.00;99.90
30134;DHT22;16946;49.984;10.672;2023-03-19T01:45:02;5.00;99.90
30134;DHT22;16946;49.984;10.672;2023-03-19T01:45:36;5.00;99.90
30134;DHT22;16946;49.984;10.672;2023-03-19T01:46:43;5.00;99.90
30134;DHT22;16946;49.984;10.672;2023-03-19T01:47:35;5.10;99.90
30134;DHT22;16946;49.984;10.672;2023-03-19T01:48:19;5.10;99.90
30134;DHT22;16946;49.984;10.672;2023-03-19T01:49:05;5.10;99.90
30134;DHT22;16946;49.984;10.672;2023-03-19T01:49:36;5.10;99.90
30134;DHT22;16946;49.984;10.672;2023-03-19T01:50:20;5.10;99.90
30134;DHT22;16946;49.984;10.672;2023-03-19T01:50:52;5.10;99.90
30134;DHT22;16946;49.984;10.672;2023-03-19T01:51:29;5.10;99.90
30134;DHT22;16946;49.984;10.672;2023-03-19T01:52:03;5.20;99.90
30134;DHT22;16946;49.984;10.672;2023-03-19T01:52:34;5.10;99.90
30134;DHT22;16946;49.984;10.672;2023-03-19T01:53:05;5.10;99.90
30134;DHT22;16946;49.984;10.672;2023-03-19T01:53:38;5.20;99.90
30134;DHT22;16946;49.984;10.672;2023-03-19T01:54:16;5.20;99.90
30134;DHT22;16946;49.984;10.672;2023-03-19T01:54:50;5.20;99.90
30134;DHT22;16946;49.984;10.672;2023-03-19T01:55:21;5.20;99.90
30134;DHT22;16946;49.984;10.672;2023-03-19T01:55:56;5.30;99.90
30134;DHT22;16946;49.984;10.672;2023-03-19T01:56:31;5.30;99.90
30134;DHT22;16946;49.984;10.672;2023-03-19T01:57:07;5.40;99.90
30134;DHT22;16946;49.984;10.672;2023-03-19T01:57:38;5.40;99.90
30134;DHT22;16946;49.984;10.672;2023-03-19T01:58:09;5.40;99.90
30134;DHT22;16946;49.984;10.672;2023-03-19T01:58:41;5.50;99.90
30134;DHT22;16946;49.984;10.672;2023-03-19T01:59:24;5.50;99.90
30134;DHT22;16946;49.984;10.672;2023-03-19T01:59:59;5.50;99.90
30134;DHT22;16946;49.984;10.672;2023-03-19T02:00:30;5.60;99.90
30134;DHT22;16946;49.984;10.672;2023-03-19T02:01:01;5.50;99.90
30134;DHT22;16946;49.984;10.672;2023-03-19T02:01:35;5.50;99.90
30134;DHT22;16946;49.984;10.672;2023-03-19T02:02:28;5.50;99.90
30134;DHT22;16946;49.984;10.672;2023-03-19T02:03:01;5.40;99.90
30134;DHT22;16946;49.984;10.672;2023-03-19T02:03:33;5.20;99.90
30134;DHT22;16946;49.984;10.672;2023-03-19T02:04:05;5.20;99.90
30134;DHT22;16946;49.984;10.672;2023-03-19T02:04:37;5.00;99.90
30134;DHT22;16946;49.984;10.672;2023-03-19T02:05:12;5.00;99.90
30134;DHT22;16946;49.984;10.672;2023-03-19T02:05:46;5.00;99.90
30134;DHT22;16946;49.984;10.672;2023-03-19T02:06:20;4.90;99.90
30134;DHT22;16946;49.984;10.672;2023-03-19T02:06:54;4.80;99.90
30134;DHT22;16946;49.984;10.672;2023-03-19T02:07:27;4.80;99.90
30134;DHT22;16946;49.984;10.672;2023-03-19T02:08:01;4.80;99.90
30134;DHT22;16946;49.984;10.672;2023-03-19T02:08:32;4.80;99.90
30134;DHT22;16946;49.984;10.672;2023-03-19T02:09:04;4.80;99.90
30134;DHT22;16946;49.984;10.672;2023-03-19T02:09:36;4.80;99.90
30134;DHT22;16946;49.984;10.672;2023-03-19T02:10:09;4.80;99.90
30134;DHT22;16946;49.984;10.672;2023-03-19T02:10:42;4.80;99.90
30134;DHT22;16946;49.984;10.672;2023-03-19T02:11:14;4.80;99.90
30134;DHT22;16946;49.984;10.672;2023-03-19T02:11:45;4.80;99.90
30134;DHT22;16946;49.984;10.672;2023-03-19T02:12:16;4.80;99.90
30134;DHT22;16946;49.984;10.672;2023-03-19T02:12:48;4.70;99.90
30134;DHT22;16946;49.984;10.672;2023-03-19T02:13:18;4.70;99.90
30134;DHT22;16946;49.984;10.672;2023-03-19T02:13:49;4.70;99.90
30134;DHT22;16946;49.984;10.672;2023-03-19T02:14:20;4.70;99.90
30134;DHT22;16946;49.984;10.672;2023-03-19T02:14:51;4.70;99.90
30134;DHT22;16946;49.984;10.672;2023-03-19T02:15:21;4.80;99.90
30134;DHT22;16946;49.984;10.672;2023-03-19T02:15:53;4.80;99.90
30134;DHT22;16946;49.984;10.672;2023-03-19T02:16:24;4.80;99.90
30134;DHT22;16946;49.984;10.672;2023-03-19T02:16:56;4.80;99.90
30134;DHT22;16946;49.984;10.672;2023-03-19T02:17:27;4.80;99.90
30134;DHT22;16946;49.984;10.672;2023-03-19T02:17:58;4.80;99.90
30134;DHT22;16946;49.984;10.672;2023-03-19T02:18:29;4.80;99.90
30134;DHT22;16946;49.984;10.672;2023-03-19T02:19:00;4.80;99.90
30134;DHT22;16946;49.984;10.672;2023-03-19T02:19:51;4.80;99.90
30134;DHT22;16946;49.984;10.672;2023-03-19T02:21:08;4.80;99.90
30134;DHT22;16946;49.984;10.672;2023-03-19T02:21:39;4.80;99.90
30134;DHT22;16946;49.984;10.672;2023-03-19T02:22:11;4.80;99.90
30134;DHT22;16946;49.984;10.672;2023-03-19T02:22:55;4.80;99.90
30134;DHT22;16946;49.984;10.672;2023-03-19T02:24:22;4.80;99.90
30134;DHT22;16946;49.984;10.672;2023-03-19T02:25:10;4.80;99.90
30134;DHT22;16946;49.984;10.672;2023-03-19T02:26:18;4.70;99.90
30134;DHT22;16946;49.984;10.672;2023-03-19T02:26:50;4.70;99.90
30134;DHT22;16946;49.984;10.672;2023-03-19T02:27:21;4.70;99.90
30134;DHT22;16946;49.984;10.672;2023-03-19T02:27:52;4.70;99.90
30134;DHT22;16946;49.984;10.672;2023-03-19T02:28:23;4.70;99.90
30134;DHT22;16946;49.984;10.672;2023-03-19T02:28:54;4.70;99.90
30134;DHT22;16946;49.984;10.672;2023-03-19T02:29:24;4.70;99.90
30134;DHT22;16946;49.984;10.672;2023-03-19T02:29:55;4.70;99.90
30134;DHT22;16946;49.984;10.672;2023-03-19T02:30:30;4.70;99.90
30134;DHT22;16946;49.984;10.672;2023-03-19T02:31:01;4.70;99.90
30134;DHT22;16946;49.984;10.672;2023-03-19T02:31:32;4.70;99.90
30134;DHT22;16946;49.984;10.672;2023-03-19T02:32:03;4.70;99.90
30134;DHT22;16946;49.984;10.672;2023-03-19T02:32:33;4.70;99.90
30134;DHT22;16946;49.984;10.672;2023-03-19T02:34:43;4.60;99.90
30134;DHT22;16946;49.984;10.672;2023-03-19T02:35:13;4.60;99.90
30134;DHT22;16946;49.984;10.672;2023-03-19T02:35:46;4.60;99.90
30134;DHT22;16946;49.984;10.672;2023-03-19T02:36:18;4.60;99.90
30134;DHT22;16946;49.984;10.672;2023-03-19T02:36:53;4.60;99.90
30134;DHT22;16946;49.984;10.672;2023-03-19T02:37:28;4.60;99.90
30134;DHT22;16946;49.984;10.672;2023-03-19T02:38:03;4.60;99.90
30134;DHT22;16946;49.984;10.672;2023-03-19T02:38:35;4.60;99.90
30134;DHT22;16946;49.984;10.672;2023-03-19T02:39:56;4.60;99.90
30134;DHT22;16946;49.984;10.672;2023-03-19T02:40:12;4.60;99.90
30134;DHT22;16946;49.984;10.672;2023-03-19T02:40:51;4.60;99.90
30134;DHT22;16946;49.984;10.672;2023-03-19T02:41:23;4.60;99.90
30134;DHT22;16946;49.984;10.672;2023-03-19T02:41:55;4.60;99.90
30134;DHT22;16946;49.984;10.672;2023-03-19T02:42:28;4.60;99.90
30134;DHT22;16946;49.984;10.672;2023-03-19T02:42:59;4.60;99.90
30134;DHT22;16946;49.984;10.672;2023-03-19T02:43:31;4.60;99.90
30134;DHT22;16946;49.984;10.672;2023-03-19T02:44:03;4.60;99.90
30134;DHT22;16946;49.984;10.672;2023-03-19T02:44:34;4.70;99.90
30134;DHT22;16946;49.984;10.672;2023-03-19T02:45:05;4.70;99.90
30134;DHT22;16946;49.984;10.672;2023-03-19T02:45:36;4.60;99.90
30134;DHT22;16946;49.984;10.672;2023-03-19T02:46:10;4.60;99.90
30134;DHT22;16946;49.984;10.672;2023-03-19T02:46:42;4.60;99.90
30134;DHT22;16946;49.984;10.672;2023-03-19T02:47:12;4.60;99.90
30134;DHT22;16946;49.984;10.672;2023-03-19T02:47:43;4.60;99.90
30134;DHT22;16946;49.984;10.672;2023-03-19T02:48:13;4.60;99.90
30134;DHT22;16946;49.984;10.672;2023-03-19T02:48:44;4.60;99.90
30134;DHT22;16946;49.984;10.672;2023-03-19T02:49:14;4.60;99.90
30134;DHT22;16946;49.984;10.672;2023-03-19T02:49:45;4.60;99.90
30134;DHT22;16946;49.984;10.672;2023-03-19T02:50:16;4.60;99.90
30134;DHT22;16946;49.984;10.672;2023-03-19T02:50:46;4.50;99.90
30134;DHT22;16946;49.984;10.672;2023-03-19T02:51:17;4.50;99.90
30134;DHT22;16946;49.984;10.672;2023-03-19T02:51:49;4.50;99.90
30134;DHT22;16946;49.984;10.672;2023-03-19T02:52:20;4.50;99.90
30134;DHT22;16946;49.984;10.672;2023-03-19T02:52:51;4.50;99.90
30134;DHT22;16946;49.984;10.672;2023-03-19T02:53:22;4.50;99.90
30134;DHT22;16946;49.984;10.672;2023-03-19T02:53:52;4.50;99.90
30134;DHT22;16946;49.984;10.672;2023-03-19T02:54:23;4.50;99.90
30134;DHT22;16946;49.984;10.672;2023-03-19T02:54:54;4.50;99.90
30134;DHT22;16946;49.984;10.672;2023-03-19T02:55:24;4.50;99.90
30134;DHT22;16946;49.984;10.672;2023-03-19T02:55:55;4.50;99.90
30134;DHT22;16946;49.984;10.672;2023-03-19T02:56:26;4.50;99.90
30134;DHT22;16946;49.984;10.672;2023-03-19T02:56:56;4.50;99.90
30134;DHT22;16946;49.984;10.672;2023-03-19T02:57:27;4.50;99.90
30134;DHT22;16946;49.984;10.672;2023-03-19T02:57:57;4.50;99.90
30134;DHT22;16946;49.984;10.672;2023-03-19T02:58:28;4.50;99.90
30134;DHT22;16946;49.984;10.672;2023-03-19T02:58:58;4.40;99.90
30134;DHT22;16946;49.984;10.672;2023-03-19T02:59:29;4.50;99.90
30134;DHT22;16946;49.984;10.672;2023-03-19T03:00:00;4.50;99.90
30134;DHT22;16946;49.984;10.672;2023-03-19T03:00:30;4.50;99.90
30134;DHT22;16946;49.984;10.672;2023-03-19T03:01:01;4.50;99.90
30134;DHT22;16946;49.984;10.672;2023-03-19T03:01:32;4.50;99.90
30134;DHT22;16946;49.984;10.672;2023-03-19T03:02:02;4.50;99.90
30134;DHT22;16946;49.984;10.672;2023-03-19T03:02:33;4.50;99.90
30134;DHT22;16946;49.984;10.672;2023-03-19T03:03:05;4.50;99.90
30134;DHT22;16946;49.984;10.672;2023-03-19T03:03:38;4.50;99.90
30134;DHT22;16946;49.984;10.672;2023-03-19T03:04:09;4.60;99.90
30134;DHT22;16946;49.984;10.672;2023-03-19T03:04:40;4.50;99.90
30134;DHT22;16946;49.984;10.672;2023-03-19T03:05:11;4.50;99.90
30134;DHT22;16946;49.984;10.672;2023-03-19T03:05:42;4.50;99.90
30134;DHT22;16946;49.984;10.672;2023-03-19T03:06:13;4.50;99.90
30134;DHT22;16946;49.984;10.672;2023-03-19T03:06:44;4.50;99.90
30134;DHT22;16946;49.984;10.672;2023-03-19T03:07:14;4.50;99.90
30134;DHT22;16946;49.984;10.672;2023-03-19T03:07:45;4.50;99.90
30134;DHT22;16946;49.984;10.672;2023-03-19T03:08:16;4.50;99.90
30134;DHT22;16946;49.984;10.672;2023-03-19T03:08:47;4.50;99.90
30134;DHT22;16946;49.984;10.672;2023-03-19T03:09:18;4.50;99.90
30134;DHT22;16946;49.984;10.672;2023-03-19T03:09:49;4.50;99.90
30134;DHT22;16946;49.984;10.672;2023-03-19T03:10:19;4.50;99.90
30134;DHT22;16946;49.984;10.672;2023-03-19T03:10:50;4.50;99.90
30134;DHT22;16946;49.984;10.672;2023-03-19T03:11:20;4.60;99.90
30134;DHT22;16946;49.984;10.672;2023-03-19T03:11:52;4.70;99.90
30134;DHT22;16946;49.984;10.672;2023-03-19T03:12:22;4.70;99.90
30134;DHT22;16946;49.984;10.672;2023-03-19T03:12:53;4.80;99.90
30134;DHT22;16946;49.984;10.672;2023-03-19T03:13:24;4.90;99.90
30134;DHT22;16946;49.984;10.672;2023-03-19T03:13:55;4.90;99.90
30134;DHT22;16946;49.984;10.672;2023-03-19T03:14:25;5.00;99.90
30134;DHT22;16946;49.984;10.672;2023-03-19T03:14:56;5.00;99.90
30134;DHT22;16946;49.984;10.672;2023-03-19T03:15:26;5.10;99.90
30134;DHT22;16946;49.984;10.672;2023-03-19T03:15:57;5.10;99.90
30134;DHT22;16946;49.984;10.672;2023-03-19T03:16:28;5.10;99.90
30134;DHT22;16946;49.984;10.672;2023-03-19T03:16:58;5.00;99.90
30134;DHT22;16946;49.984;10.672;2023-03-19T03:17:29;5.00;99.90
30134;DHT22;16946;49.984;10.672;2023-03-19T03:18:00;5.00;99.90
30134;DHT22;16946;49.984;10.672;2023-03-19T03:18:31;5.00;99.90
30134;DHT22;16946;49.984;10.672;2023-03-19T03:19:02;5.00;99.90
30134;DHT22;16946;49.984;10.672;2023-03-19T03:19:33;4.90;99.90
30134;DHT22;16946;49.984;10.672;2023-03-19T03:20:04;5.00;99.90
30134;DHT22;16946;49.984;10.672;2023-03-19T03:20:35;5.00;99.90
30134;DHT22;16946;49.984;10.672;2023-03-19T03:21:06;4.90;99.90
30134;DHT22;16946;49.984;10.672;2023-03-19T03:21:37;4.90;99.90
30134;DHT22;16946;49.984;10.672;2023-03-19T03:22:07;4.90;99.90
30134;DHT22;16946;49.984;10.672;2023-03-19T03:22:39;4.90;99.90
30134;DHT22;16946;49.984;10.672;2023-03-19T03:23:09;4.90;99.90
30134;DHT22;16946;49.984;10.672;2023-03-19T03:23:40;5.00;99.90
30134;DHT22;16946;49.984;10.672;2023-03-19T03:24:11;5.00;99.90
30134;DHT22;16946;49.984;10.672;2023-03-19T03:24:41;4.90;99.90
30134;DHT22;16946;49.984;10.672;2023-03-19T03:25:12;4.90;99.90